Darmstadt, Illinois
Current Conditions -  °F | °C
As of 9:55 AM on Thursday 27 Nov 2014 (Local Time) from KSAR Reporting Station
Overcast Overcast  
Wind Chill: 24°   Ceiling: 2000
Heat Index: 29°   Visibility: 7mi
Dew Point: 26°   Wind: 5mph
Humidity: 88%   Direction: 310°NW
Pressure: 30.5"   Gusts: NA
Location:  38.2866°N, 89.7872°W
Report Text: KSAR 271555Z AUTO 31004KT 7SM OVC020 M01/M03 A3050 RMK AO2 T10151032
Loading
Personal Weather Stations






























Interactive Weather Map New forecast layout! Learn more

10-Day Weather Forecast

Advertisements
Track Severe Weather on mobile